sensor_id;sensor_type;location;lat;lon;timestamp;temperature;humidity
4107;DHT22;21906;50.812;7.132;2023-06-19T00:02:06;23.60;61.90
4107;DHT22;21906;50.812;7.132;2023-06-19T00:04:32;23.60;61.60
4107;DHT22;21906;50.812;7.132;2023-06-19T00:07:00;23.50;61.50
4107;DHT22;21906;50.812;7.132;2023-06-19T00:09:26;23.50;61.50
4107;DHT22;21906;50.812;7.132;2023-06-19T00:11:52;23.50;61.40
4107;DHT22;21906;50.812;7.132;2023-06-19T00:14:18;23.40;61.60
4107;DHT22;21906;50.812;7.132;2023-06-19T00:16:44;23.40;61.90
4107;DHT22;21906;50.812;7.132;2023-06-19T00:19:10;23.40;62.30
4107;DHT22;21906;50.812;7.132;2023-06-19T00:21:37;23.40;62.20
4107;DHT22;21906;50.812;7.132;2023-06-19T00:24:04;23.40;62.20
4107;DHT22;21906;50.812;7.132;2023-06-19T00:26:29;23.40;62.00
4107;DHT22;21906;50.812;7.132;2023-06-19T00:28:55;23.40;62.20
4107;DHT22;21906;50.812;7.132;2023-06-19T00:31:21;23.40;62.30
4107;DHT22;21906;50.812;7.132;2023-06-19T00:33:47;23.40;62.20
4107;DHT22;21906;50.812;7.132;2023-06-19T00:36:15;23.30;62.50
4107;DHT22;21906;50.812;7.132;2023-06-19T00:38:41;23.40;62.70
4107;DHT22;21906;50.812;7.132;2023-06-19T00:41:07;23.40;62.60
4107;DHT22;21906;50.812;7.132;2023-06-19T00:43:33;23.40;62.60
4107;DHT22;21906;50.812;7.132;2023-06-19T00:46:00;23.40;62.60
4107;DHT22;21906;50.812;7.132;2023-06-19T00:48:27;23.40;62.50
4107;DHT22;21906;50.812;7.132;2023-06-19T00:50:54;23.40;62.50
4107;DHT22;21906;50.812;7.132;2023-06-19T00:53:21;23.40;62.70
4107;DHT22;21906;50.812;7.132;2023-06-19T00:55:48;23.40;62.70
4107;DHT22;21906;50.812;7.132;2023-06-19T00:58:15;23.40;62.70
4107;DHT22;21906;50.812;7.132;2023-06-19T01:00:40;23.40;62.80
4107;DHT22;21906;50.812;7.132;2023-06-19T01:03:06;23.40;62.80
4107;DHT22;21906;50.812;7.132;2023-06-19T01:05:32;23.40;62.90
4107;DHT22;21906;50.812;7.132;2023-06-19T01:09:07;23.40;62.80
4107;DHT22;21906;50.812;7.132;2023-06-19T01:11:09;23.30;62.80
4107;DHT22;21906;50.812;7.132;2023-06-19T01:13:50;23.30;62.80
4107;DHT22;21906;50.812;7.132;2023-06-19T01:16:20;23.30;63.20
4107;DHT22;21906;50.812;7.132;2023-06-19T01:18:47;23.10;63.50
4107;DHT22;21906;50.812;7.132;2023-06-19T01:21:15;23.10;63.70
4107;DHT22;21906;50.812;7.132;2023-06-19T01:23:42;23.10;63.20
4107;DHT22;21906;50.812;7.132;2023-06-19T01:26:08;23.00;63.40
4107;DHT22;21906;50.812;7.132;2023-06-19T01:28:35;23.00;63.00
4107;DHT22;21906;50.812;7.132;2023-06-19T01:31:48;22.90;62.90
4107;DHT22;21906;50.812;7.132;2023-06-19T01:33:55;22.90;63.00
4107;DHT22;21906;50.812;7.132;2023-06-19T01:36:22;22.90;62.70
4107;DHT22;21906;50.812;7.132;2023-06-19T01:38:49;22.90;62.70
4107;DHT22;21906;50.812;7.132;2023-06-19T01:41:16;22.90;62.40
4107;DHT22;21906;50.812;7.132;2023-06-19T01:43:42;22.90;62.40
4107;DHT22;21906;50.812;7.132;2023-06-19T01:46:08;22.90;62.40
4107;DHT22;21906;50.812;7.132;2023-06-19T01:48:38;22.90;62.30
4107;DHT22;21906;50.812;7.132;2023-06-19T01:51:04;22.90;62.60
4107;DHT22;21906;50.812;7.132;2023-06-19T01:53:33;22.80;62.60
4107;DHT22;21906;50.812;7.132;2023-06-19T01:56:00;22.80;62.90
4107;DHT22;21906;50.812;7.132;2023-06-19T01:58:26;22.90;62.90
4107;DHT22;21906;50.812;7.132;2023-06-19T02:00:51;22.90;63.10
4107;DHT22;21906;50.812;7.132;2023-06-19T02:03:17;22.90;63.30
4107;DHT22;21906;50.812;7.132;2023-06-19T02:05:43;22.90;63.20
4107;DHT22;21906;50.812;7.132;2023-06-19T02:08:08;22.90;63.00
4107;DHT22;21906;50.812;7.132;2023-06-19T02:10:34;22.90;63.20
4107;DHT22;21906;50.812;7.132;2023-06-19T02:13:00;22.90;63.50
4107;DHT22;21906;50.812;7.132;2023-06-19T02:15:26;22.90;63.50
4107;DHT22;21906;50.812;7.132;2023-06-19T02:17:51;22.80;63.30
4107;DHT22;21906;50.812;7.132;2023-06-19T02:20:20;22.80;63.10
4107;DHT22;21906;50.812;7.132;2023-06-19T02:22:46;22.90;63.30
4107;DHT22;21906;50.812;7.132;2023-06-19T02:25:12;22.80;63.50
4107;DHT22;21906;50.812;7.132;2023-06-19T02:27:37;22.80;63.70
4107;DHT22;21906;50.812;7.132;2023-06-19T02:30:04;22.80;63.20
4107;DHT22;21906;50.812;7.132;2023-06-19T02:32:30;22.70;63.10
4107;DHT22;21906;50.812;7.132;2023-06-19T02:34:57;22.80;62.10
4107;DHT22;21906;50.812;7.132;2023-06-19T02:37:22;22.80;62.00
4107;DHT22;21906;50.812;7.132;2023-06-19T02:39:48;22.80;62.20
4107;DHT22;21906;50.812;7.132;2023-06-19T02:42:14;22.80;62.60
4107;DHT22;21906;50.812;7.132;2023-06-19T02:44:40;22.80;62.80
4107;DHT22;21906;50.812;7.132;2023-06-19T02:47:07;22.80;62.70
4107;DHT22;21906;50.812;7.132;2023-06-19T02:49:32;22.80;62.70
4107;DHT22;21906;50.812;7.132;2023-06-19T02:51:58;22.70;62.70
4107;DHT22;21906;50.812;7.132;2023-06-19T02:54:23;22.70;62.50
4107;DHT22;21906;50.812;7.132;2023-06-19T02:56:49;22.70;62.60
4107;DHT22;21906;50.812;7.132;2023-06-19T02:59:15;22.70;62.70
4107;DHT22;21906;50.812;7.132;2023-06-19T03:01:40;22.60;62.70
4107;DHT22;21906;50.812;7.132;2023-06-19T03:04:06;22.60;62.70
4107;DHT22;21906;50.812;7.132;2023-06-19T03:06:31;22.50;62.80
4107;DHT22;21906;50.812;7.132;2023-06-19T03:09:06;22.40;63.00
4107;DHT22;21906;50.812;7.132;2023-06-19T03:11:40;22.40;62.90
4107;DHT22;21906;50.812;7.132;2023-06-19T03:14:06;22.40;63.20
4107;DHT22;21906;50.812;7.132;2023-06-19T03:16:33;22.40;63.30
4107;DHT22;21906;50.812;7.132;2023-06-19T03:18:59;22.30;63.40
4107;DHT22;21906;50.812;7.132;2023-06-19T03:21:24;22.30;63.60
4107;DHT22;21906;50.812;7.132;2023-06-19T03:23:50;22.20;63.70
4107;DHT22;21906;50.812;7.132;2023-06-19T03:26:16;22.20;63.70
4107;DHT22;21906;50.812;7.132;2023-06-19T03:28:41;22.20;63.80
4107;DHT22;21906;50.812;7.132;2023-06-19T03:31:07;22.20;63.80
4107;DHT22;21906;50.812;7.132;2023-06-19T03:33:33;22.20;63.80
4107;DHT22;21906;50.812;7.132;2023-06-19T03:35:58;22.20;63.80
4107;DHT22;21906;50.812;7.132;2023-06-19T03:38:24;22.20;63.80
4107;DHT22;21906;50.812;7.132;2023-06-19T03:40:50;22.20;63.90
4107;DHT22;21906;50.812;7.132;2023-06-19T03:43:16;22.20;63.90
4107;DHT22;21906;50.812;7.132;2023-06-19T03:45:42;22.10;64.20
4107;DHT22;21906;50.812;7.132;2023-06-19T03:48:07;22.10;64.40
4107;DHT22;21906;50.812;7.132;2023-06-19T03:50:33;22.00;64.50
4107;DHT22;21906;50.812;7.132;2023-06-19T03:52:59;21.90;64.60
4107;DHT22;21906;50.812;7.132;2023-06-19T03:55:24;22.00;64.70
4107;DHT22;21906;50.812;7.132;2023-06-19T03:57:50;22.00;64.80
4107;DHT22;21906;50.812;7.132;2023-06-19T04:00:16;21.90;64.90
4107;DHT22;21906;50.812;7.132;2023-06-19T04:02:43;21.90;64.90
4107;DHT22;21906;50.812;7.132;2023-06-19T04:05:11;21.90;65.00
4107;DHT22;21906;50.812;7.132;2023-06-19T04:07:37;21.90;65.10
4107;DHT22;21906;50.812;7.132;2023-06-19T04:10:03;21.70;65.90
4107;DHT22;21906;50.812;7.132;2023-06-19T04:12:29;21.70;65.70
4107;DHT22;21906;50.812;7.132;2023-06-19T04:14:54;21.80;65.30
4107;DHT22;21906;50.812;7.132;2023-06-19T04:17:20;21.80;65.10
4107;DHT22;21906;50.812;7.132;2023-06-19T04:19:46;21.90;63.20
4107;DHT22;21906;50.812;7.132;2023-06-19T04:22:11;21.90;63.00
4107;DHT22;21906;50.812;7.132;2023-06-19T04:24:37;22.10;62.10
4107;DHT22;21906;50.812;7.132;2023-06-19T04:27:03;22.20;61.90
4107;DHT22;21906;50.812;7.132;2023-06-19T04:29:28;22.30;61.70
4107;DHT22;21906;50.812;7.132;2023-06-19T04:32:00;22.30;61.20
4107;DHT22;21906;50.812;7.132;2023-06-19T04:34:29;22.40;61.30
4107;DHT22;21906;50.812;7.132;2023-06-19T04:36:54;22.50;61.00
4107;DHT22;21906;50.812;7.132;2023-06-19T04:39:24;22.50;61.00
4107;DHT22;21906;50.812;7.132;2023-06-19T04:41:50;22.50;61.10
4107;DHT22;21906;50.812;7.132;2023-06-19T04:44:15;22.50;61.10
4107;DHT22;21906;50.812;7.132;2023-06-19T04:46:42;22.50;61.20
4107;DHT22;21906;50.812;7.132;2023-06-19T04:49:09;22.60;61.30
4107;DHT22;21906;50.812;7.132;2023-06-19T04:51:35;22.60;61.60
4107;DHT22;21906;50.812;7.132;2023-06-19T04:54:00;22.50;61.80
4107;DHT22;21906;50.812;7.132;2023-06-19T04:56:29;22.40;62.00
4107;DHT22;21906;50.812;7.132;2023-06-19T04:58:58;22.40;62.00
4107;DHT22;21906;50.812;7.132;2023-06-19T05:01:26;22.40;62.00
4107;DHT22;21906;50.812;7.132;2023-06-19T05:03:56;22.50;62.10
4107;DHT22;21906;50.812;7.132;2023-06-19T05:06:25;22.60;61.70
4107;DHT22;21906;50.812;7.132;2023-06-19T05:08:51;22.70;61.30
4107;DHT22;21906;50.812;7.132;2023-06-19T05:11:18;22.70;61.50
4107;DHT22;21906;50.812;7.132;2023-06-19T05:13:43;22.70;61.40
4107;DHT22;21906;50.812;7.132;2023-06-19T05:16:09;22.70;61.30
4107;DHT22;21906;50.812;7.132;2023-06-19T05:18:35;22.70;61.00
4107;DHT22;21906;50.812;7.132;2023-06-19T05:21:01;22.60;61.40
4107;DHT22;21906;50.812;7.132;2023-06-19T05:23:27;22.60;61.30
4107;DHT22;21906;50.812;7.132;2023-06-19T05:25:52;22.60;61.40
4107;DHT22;21906;50.812;7.132;2023-06-19T05:28:18;22.70;61.70
4107;DHT22;21906;50.812;7.132;2023-06-19T05:30:44;22.70;61.80
4107;DHT22;21906;50.812;7.132;2023-06-19T05:33:10;22.70;61.30
4107;DHT22;21906;50.812;7.132;2023-06-19T05:35:42;22.70;61.40
4107;DHT22;21906;50.812;7.132;2023-06-19T05:38:09;22.80;61.70
4107;DHT22;21906;50.812;7.132;2023-06-19T05:40:35;22.80;61.60
4107;DHT22;21906;50.812;7.132;2023-06-19T05:43:01;22.80;61.90
4107;DHT22;21906;50.812;7.132;2023-06-19T05:45:27;22.90;61.40
4107;DHT22;21906;50.812;7.132;2023-06-19T05:47:52;22.90;61.40
4107;DHT22;21906;50.812;7.132;2023-06-19T05:50:18;22.90;61.40
4107;DHT22;21906;50.812;7.132;2023-06-19T05:52:44;22.90;61.60
4107;DHT22;21906;50.812;7.132;2023-06-19T05:55:10;23.00;61.50
4107;DHT22;21906;50.812;7.132;2023-06-19T05:57:36;23.00;61.40
4107;DHT22;21906;50.812;7.132;2023-06-19T06:00:03;23.00;61.30
4107;DHT22;21906;50.812;7.132;2023-06-19T06:02:29;23.10;60.90
4107;DHT22;21906;50.812;7.132;2023-06-19T06:04:55;23.20;61.00
4107;DHT22;21906;50.812;7.132;2023-06-19T06:07:21;23.20;60.70
4107;DHT22;21906;50.812;7.132;2023-06-19T06:09:47;23.30;60.90
4107;DHT22;21906;50.812;7.132;2023-06-19T06:12:13;23.30;60.60
4107;DHT22;21906;50.812;7.132;2023-06-19T06:14:40;23.40;61.40
4107;DHT22;21906;50.812;7.132;2023-06-19T06:17:06;23.40;60.80
4107;DHT22;21906;50.812;7.132;2023-06-19T06:19:32;23.40;60.60
4107;DHT22;21906;50.812;7.132;2023-06-19T06:21:57;23.40;60.50
4107;DHT22;21906;50.812;7.132;2023-06-19T06:24:23;23.50;60.80
4107;DHT22;21906;50.812;7.132;2023-06-19T06:26:49;23.40;61.10
4107;DHT22;21906;50.812;7.132;2023-06-19T06:29:15;23.40;62.20
4107;DHT22;21906;50.812;7.132;2023-06-19T06:31:40;23.40;61.40
4107;DHT22;21906;50.812;7.132;2023-06-19T06:34:07;23.50;61.20
4107;DHT22;21906;50.812;7.132;2023-06-19T06:36:33;23.60;61.00
4107;DHT22;21906;50.812;7.132;2023-06-19T06:38:58;23.60;60.90
4107;DHT22;21906;50.812;7.132;2023-06-19T06:41:24;23.50;61.20
4107;DHT22;21906;50.812;7.132;2023-06-19T06:43:49;23.40;61.00
4107;DHT22;21906;50.812;7.132;2023-06-19T06:46:15;23.30;61.40
4107;DHT22;21906;50.812;7.132;2023-06-19T06:48:41;23.40;61.60
4107;DHT22;21906;50.812;7.132;2023-06-19T06:51:07;23.40;61.00
4107;DHT22;21906;50.812;7.132;2023-06-19T06:53:34;23.50;60.40
4107;DHT22;21906;50.812;7.132;2023-06-19T06:56:00;23.50;60.40
4107;DHT22;21906;50.812;7.132;2023-06-19T06:58:26;23.70;59.80
4107;DHT22;21906;50.812;7.132;2023-06-19T07:00:53;23.70;60.20
4107;DHT22;21906;50.812;7.132;2023-06-19T07:03:19;23.70;60.20
4107;DHT22;21906;50.812;7.132;2023-06-19T07:05:45;23.80;60.40
4107;DHT22;21906;50.812;7.132;2023-06-19T07:08:10;23.80;60.20
4107;DHT22;21906;50.812;7.132;2023-06-19T07:10:36;23.80;60.40
4107;DHT22;21906;50.812;7.132;2023-06-19T07:13:02;24.00;59.30
4107;DHT22;21906;50.812;7.132;2023-06-19T07:15:27;24.10;59.50
4107;DHT22;21906;50.812;7.132;2023-06-19T07:17:53;24.10;60.00
4107;DHT22;21906;50.812;7.132;2023-06-19T07:20:19;24.20;59.60
4107;DHT22;21906;50.812;7.132;2023-06-19T07:22:45;24.40;59.10
4107;DHT22;21906;50.812;7.132;2023-06-19T07:25:11;24.40;59.40
4107;DHT22;21906;50.812;7.132;2023-06-19T07:27:38;24.60;58.80
4107;DHT22;21906;50.812;7.132;2023-06-19T07:30:04;24.70;58.10
4107;DHT22;21906;50.812;7.132;2023-06-19T07:32:30;24.80;57.40
4107;DHT22;21906;50.812;7.132;2023-06-19T07:34:56;24.60;56.40
4107;DHT22;21906;50.812;7.132;2023-06-19T07:37:21;24.60;56.60
4107;DHT22;21906;50.812;7.132;2023-06-19T07:39:48;24.60;57.30
4107;DHT22;21906;50.812;7.132;2023-06-19T07:42:15;24.70;57.70
4107;DHT22;21906;50.812;7.132;2023-06-19T07:44:41;24.80;56.70
4107;DHT22;21906;50.812;7.132;2023-06-19T07:47:07;24.80;56.30
4107;DHT22;21906;50.812;7.132;2023-06-19T07:49:33;24.70;56.60
4107;DHT22;21906;50.812;7.132;2023-06-19T07:51:59;24.80;57.00
4107;DHT22;21906;50.812;7.132;2023-06-19T07:54:25;24.80;57.40
4107;DHT22;21906;50.812;7.132;2023-06-19T07:56:51;24.90;55.00
4107;DHT22;21906;50.812;7.132;2023-06-19T07:59:17;24.90;54.40
4107;DHT22;21906;50.812;7.132;2023-06-19T08:01:44;24.80;54.60
4107;DHT22;21906;50.812;7.132;2023-06-19T08:04:09;24.80;53.90
4107;DHT22;21906;50.812;7.132;2023-06-19T08:06:35;24.80;54.00
4107;DHT22;21906;50.812;7.132;2023-06-19T08:09:01;24.80;53.70
4107;DHT22;21906;50.812;7.132;2023-06-19T08:11:27;24.80;53.70
4107;DHT22;21906;50.812;7.132;2023-06-19T08:13:53;24.80;53.20
4107;DHT22;21906;50.812;7.132;2023-06-19T08:16:19;24.80;53.00
4107;DHT22;21906;50.812;7.132;2023-06-19T08:18:45;24.70;52.20
4107;DHT22;21906;50.812;7.132;2023-06-19T08:21:12;24.70;52.90
4107;DHT22;21906;50.812;7.132;2023-06-19T08:23:38;24.70;52.40
4107;DHT22;21906;50.812;7.132;2023-06-19T08:26:05;24.80;51.80
4107;DHT22;21906;50.812;7.132;2023-06-19T08:28:34;24.80;52.00
4107;DHT22;21906;50.812;7.132;2023-06-19T08:31:00;24.90;51.80
4107;DHT22;21906;50.812;7.132;2023-06-19T08:33:26;24.70;51.60
4107;DHT22;21906;50.812;7.132;2023-06-19T08:35:51;24.80;51.70
4107;DHT22;21906;50.812;7.132;2023-06-19T08:38:18;24.90;51.90
4107;DHT22;21906;50.812;7.132;2023-06-19T08:40:45;24.90;51.40
4107;DHT22;21906;50.812;7.132;2023-06-19T08:43:11;25.10;51.10
4107;DHT22;21906;50.812;7.132;2023-06-19T08:45:37;25.20;50.30
4107;DHT22;21906;50.812;7.132;2023-06-19T08:48:03;25.20;50.20
4107;DHT22;21906;50.812;7.132;2023-06-19T08:50:32;25.20;49.90
4107;DHT22;21906;50.812;7.132;2023-06-19T08:52:58;25.00;50.30
4107;DHT22;21906;50.812;7.132;2023-06-19T08:55:24;25.00;50.70
4107;DHT22;21906;50.812;7.132;2023-06-19T08:57:51;25.10;50.70
4107;DHT22;21906;50.812;7.132;2023-06-19T09:00:28;25.20;50.40
4107;DHT22;21906;50.812;7.132;2023-06-19T09:03:02;25.40;49.80
4107;DHT22;21906;50.812;7.132;2023-06-19T09:05:28;25.50;50.40
4107;DHT22;21906;50.812;7.132;2023-06-19T09:07:56;25.50;49.30
4107;DHT22;21906;50.812;7.132;2023-06-19T09:10:22;25.60;49.50
4107;DHT22;21906;50.812;7.132;2023-06-19T09:13:00;25.70;49.10
4107;DHT22;21906;50.812;7.132;2023-06-19T09:15:32;25.80;48.50
4107;DHT22;21906;50.812;7.132;2023-06-19T09:20:28;25.70;48.00
4107;DHT22;21906;50.812;7.132;2023-06-19T09:22:58;25.70;47.70
4107;DHT22;21906;50.812;7.132;2023-06-19T09:25:24;25.70;48.20
4107;DHT22;21906;50.812;7.132;2023-06-19T09:27:55;25.80;48.30
4107;DHT22;21906;50.812;7.132;2023-06-19T09:30:21;25.80;47.80
4107;DHT22;21906;50.812;7.132;2023-06-19T09:32:47;25.90;47.60
4107;DHT22;21906;50.812;7.132;2023-06-19T09:35:13;25.80;48.40
4107;DHT22;21906;50.812;7.132;2023-06-19T09:37:40;25.70;48.60
4107;DHT22;21906;50.812;7.132;2023-06-19T09:40:07;25.70;47.70
4107;DHT22;21906;50.812;7.132;2023-06-19T09:42:37;25.80;47.50
4107;DHT22;21906;50.812;7.132;2023-06-19T09:45:05;25.70;47.50
4107;DHT22;21906;50.812;7.132;2023-06-19T09:47:36;25.80;48.50
4107;DHT22;21906;50.812;7.132;2023-06-19T09:50:03;25.80;48.10
4107;DHT22;21906;50.812;7.132;2023-06-19T09:52:29;25.70;47.90
4107;DHT22;21906;50.812;7.132;2023-06-19T09:54:56;25.80;48.00
4107;DHT22;21906;50.812;7.132;2023-06-19T09:57:24;25.80;47.50
4107;DHT22;21906;50.812;7.132;2023-06-19T09:59:54;25.70;49.20
4107;DHT22;21906;50.812;7.132;2023-06-19T10:02:22;25.60;48.70
4107;DHT22;21906;50.812;7.132;2023-06-19T10:04:55;25.80;48.50
4107;DHT22;21906;50.812;7.132;2023-06-19T10:07:26;25.90;47.50
4107;DHT22;21906;50.812;7.132;2023-06-19T10:10:05;25.90;47.50
4107;DHT22;21906;50.812;7.132;2023-06-19T10:12:42;25.90;47.60
4107;DHT22;21906;50.812;7.132;2023-06-19T10:17:58;26.20;47.10
4107;DHT22;21906;50.812;7.132;2023-06-19T10:20:35;26.30;47.90
4107;DHT22;21906;50.812;7.132;2023-06-19T10:25:35;26.40;46.80
4107;DHT22;21906;50.812;7.132;2023-06-19T10:28:02;26.40;45.80
4107;DHT22;21906;50.812;7.132;2023-06-19T10:30:34;26.50;46.50
4107;DHT22;21906;50.812;7.132;2023-06-19T10:33:00;26.50;45.60
4107;DHT22;21906;50.812;7.132;2023-06-19T10:35:28;26.60;46.40
4107;DHT22;21906;50.812;7.132;2023-06-19T10:37:54;26.50;46.80
4107;DHT22;21906;50.812;7.132;2023-06-19T10:40:20;26.70;46.80
4107;DHT22;21906;50.812;7.132;2023-06-19T10:42:46;26.80;46.20
4107;DHT22;21906;50.812;7.132;2023-06-19T10:45:13;26.90;45.40
4107;DHT22;21906;50.812;7.132;2023-06-19T10:47:42;27.10;45.40
4107;DHT22;21906;50.812;7.132;2023-06-19T10:50:11;27.10;43.50
4107;DHT22;21906;50.812;7.132;2023-06-19T10:52:43;27.10;44.20
4107;DHT22;21906;50.812;7.132;2023-06-19T10:55:10;27.20;44.10
4107;DHT22;21906;50.812;7.132;2023-06-19T10:57:36;27.40;45.60
4107;DHT22;21906;50.812;7.132;2023-06-19T11:00:03;27.40;43.10
4107;DHT22;21906;50.812;7.132;2023-06-19T11:02:46;27.40;43.30
4107;DHT22;21906;50.812;7.132;2023-06-19T11:05:12;27.40;45.10
4107;DHT22;21906;50.812;7.132;2023-06-19T11:07:39;27.40;45.00
4107;DHT22;21906;50.812;7.132;2023-06-19T11:10:05;27.50;45.10
4107;DHT22;21906;50.812;7.132;2023-06-19T11:12:32;27.80;43.70
4107;DHT22;21906;50.812;7.132;2023-06-19T11:15:03;27.90;42.00
4107;DHT22;21906;50.812;7.132;2023-06-19T11:17:31;28.00;42.00
4107;DHT22;21906;50.812;7.132;2023-06-19T11:19:57;28.20;41.70
4107;DHT22;21906;50.812;7.132;2023-06-19T11:22:39;28.20;42.90
4107;DHT22;21906;50.812;7.132;2023-06-19T11:25:07;28.20;42.20
4107;DHT22;21906;50.812;7.132;2023-06-19T11:27:34;28.30;42.10
4107;DHT22;21906;50.812;7.132;2023-06-19T11:30:02;28.20;40.80
4107;DHT22;21906;50.812;7.132;2023-06-19T11:32:32;28.30;42.10
4107;DHT22;21906;50.812;7.132;2023-06-19T11:35:05;28.40;41.40
4107;DHT22;21906;50.812;7.132;2023-06-19T11:37:33;28.40;41.70
4107;DHT22;21906;50.812;7.132;2023-06-19T11:40:00;28.60;40.50
4107;DHT22;21906;50.812;7.132;2023-06-19T11:42:28;28.60;41.20
4107;DHT22;21906;50.812;7.132;2023-06-19T11:44:55;28.40;41.20
4107;DHT22;21906;50.812;7.132;2023-06-19T11:47:21;28.50;43.10
4107;DHT22;21906;50.812;7.132;2023-06-19T11:49:48;28.50;41.10
4107;DHT22;21906;50.812;7.132;2023-06-19T11:52:15;28.60;42.80
4107;DHT22;21906;50.812;7.132;2023-06-19T11:54:40;28.50;41.60
4107;DHT22;21906;50.812;7.132;2023-06-19T11:57:06;28.40;41.70
4107;DHT22;21906;50.812;7.132;2023-06-19T11:59:32;28.60;41.70
4107;DHT22;21906;50.812;7.132;2023-06-19T12:01:58;28.80;40.90
4107;DHT22;21906;50.812;7.132;2023-06-19T12:04:25;28.90;39.30
4107;DHT22;21906;50.812;7.132;2023-06-19T12:06:52;28.90;39.40
4107;DHT22;21906;50.812;7.132;2023-06-19T12:09:18;28.90;40.50
4107;DHT22;21906;50.812;7.132;2023-06-19T12:11:44;29.00;40.60
4107;DHT22;21906;50.812;7.132;2023-06-19T12:14:10;29.20;39.20
4107;DHT22;21906;50.812;7.132;2023-06-19T12:16:35;29.30;38.30
4107;DHT22;21906;50.812;7.132;2023-06-19T12:19:01;29.30;40.10
4107;DHT22;21906;50.812;7.132;2023-06-19T12:21:27;29.40;39.00
4107;DHT22;21906;50.812;7.132;2023-06-19T12:23:53;29.70;36.60
4107;DHT22;21906;50.812;7.132;2023-06-19T12:26:19;29.90;37.60
4107;DHT22;21906;50.812;7.132;2023-06-19T12:28:45;30.00;37.20
4107;DHT22;21906;50.812;7.132;2023-06-19T12:31:11;30.10;36.30
4107;DHT22;21906;50.812;7.132;2023-06-19T12:33:37;30.20;36.30
4107;DHT22;21906;50.812;7.132;2023-06-19T12:36:10;30.10;37.30
4107;DHT22;21906;50.812;7.132;2023-06-19T12:38:38;30.20;38.20
4107;DHT22;21906;50.812;7.132;2023-06-19T12:41:05;30.20;36.90
4107;DHT22;21906;50.812;7.132;2023-06-19T12:43:31;30.20;36.60
4107;DHT22;21906;50.812;7.132;2023-06-19T12:45:59;30.20;37.90
4107;DHT22;21906;50.812;7.132;2023-06-19T12:48:26;30.30;38.20
4107;DHT22;21906;50.812;7.132;2023-06-19T12:50:52;30.60;37.20
4107;DHT22;21906;50.812;7.132;2023-06-19T12:53:17;30.70;36.70
4107;DHT22;21906;50.812;7.132;2023-06-19T12:55:43;30.90;37.80
4107;DHT22;21906;50.812;7.132;2023-06-19T12:58:10;31.10;36.50
4107;DHT22;21906;50.812;7.132;2023-06-19T13:00:37;31.00;35.80
4107;DHT22;21906;50.812;7.132;2023-06-19T13:03:03;30.90;36.80
4107;DHT22;21906;50.812;7.132;2023-06-19T13:05:29;30.90;37.80
4107;DHT22;21906;50.812;7.132;2023-06-19T13:07:54;30.90;36.50
4107;DHT22;21906;50.812;7.132;2023-06-19T13:10:20;31.00;36.10
4107;DHT22;21906;50.812;7.132;2023-06-19T13:12:46;31.10;35.60
4107;DHT22;21906;50.812;7.132;2023-06-19T13:15:12;30.90;35.40
4107;DHT22;21906;50.812;7.132;2023-06-19T13:17:38;30.70;36.50
4107;DHT22;21906;50.812;7.132;2023-06-19T13:20:04;30.30;35.40
4107;DHT22;21906;50.812;7.132;2023-06-19T13:22:31;30.20;36.90
4107;DHT22;21906;50.812;7.132;2023-06-19T13:24:57;30.20;38.00
4107;DHT22;21906;50.812;7.132;2023-06-19T13:27:23;30.60;38.20
4107;DHT22;21906;50.812;7.132;2023-06-19T13:29:49;30.90;34.90
4107;DHT22;21906;50.812;7.132;2023-06-19T13:32:14;30.90;35.10
4107;DHT22;21906;50.812;7.132;2023-06-19T13:34:40;30.70;35.80
4107;DHT22;21906;50.812;7.132;2023-06-19T13:37:06;30.70;35.80
4107;DHT22;21906;50.812;7.132;2023-06-19T13:39:32;30.80;36.60
4107;DHT22;21906;50.812;7.132;2023-06-19T13:41:58;30.90;35.40
4107;DHT22;21906;50.812;7.132;2023-06-19T13:44:27;30.90;35.40
4107;DHT22;21906;50.812;7.132;2023-06-19T13:46:53;30.60;35.30
4107;DHT22;21906;50.812;7.132;2023-06-19T13:49:20;30.80;34.90
4107;DHT22;21906;50.812;7.132;2023-06-19T13:51:45;30.70;35.10
4107;DHT22;21906;50.812;7.132;2023-06-19T13:54:11;30.70;35.30
4107;DHT22;21906;50.812;7.132;2023-06-19T13:56:39;30.80;36.40
4107;DHT22;21906;50.812;7.132;2023-06-19T13:59:05;31.10;35.30
4107;DHT22;21906;50.812;7.132;2023-06-19T14:01:32;31.20;35.00
4107;DHT22;21906;50.812;7.132;2023-06-19T14:03:58;31.10;33.80
4107;DHT22;21906;50.812;7.132;2023-06-19T14:06:24;31.20;35.20
4107;DHT22;21906;50.812;7.132;2023-06-19T14:08:51;31.30;34.50
4107;DHT22;21906;50.812;7.132;2023-06-19T14:11:18;31.30;33.30
4107;DHT22;21906;50.812;7.132;2023-06-19T14:13:44;31.10;33.40
4107;DHT22;21906;50.812;7.132;2023-06-19T14:16:10;31.20;34.30
4107;DHT22;21906;50.812;7.132;2023-06-19T14:18:35;31.50;33.40
4107;DHT22;21906;50.812;7.132;2023-06-19T14:21:03;31.60;33.50
4107;DHT22;21906;50.812;7.132;2023-06-19T14:23:29;31.90;33.80
4107;DHT22;21906;50.812;7.132;2023-06-19T14:25:55;32.20;31.80
4107;DHT22;21906;50.812;7.132;2023-06-19T14:28:21;32.40;30.60
4107;DHT22;21906;50.812;7.132;2023-06-19T14:30:47;32.60;31.40
4107;DHT22;21906;50.812;7.132;2023-06-19T14:33:12;32.60;31.10
4107;DHT22;21906;50.812;7.132;2023-06-19T14:35:44;32.90;30.10
4107;DHT22;21906;50.812;7.132;2023-06-19T14:38:12;33.40;30.10
4107;DHT22;21906;50.812;7.132;2023-06-19T14:40:40;33.40;29.70
4107;DHT22;21906;50.812;7.132;2023-06-19T14:43:05;33.80;30.00
4107;DHT22;21906;50.812;7.132;2023-06-19T14:45:31;34.10;29.80
4107;DHT22;21906;50.812;7.132;2023-06-19T14:47:58;34.30;30.20
4107;DHT22;21906;50.812;7.132;2023-06-19T14:50:23;34.20;28.70
4107;DHT22;21906;50.812;7.132;2023-06-19T14:52:49;34.10;29.40
4107;DHT22;21906;50.812;7.132;2023-06-19T14:55:15;34.30;30.10
4107;DHT22;21906;50.812;7.132;2023-06-19T14:57:41;34.30;28.90
4107;DHT22;21906;50.812;7.132;2023-06-19T15:00:07;34.40;29.60
4107;DHT22;21906;50.812;7.132;2023-06-19T15:02:34;34.90;29.60
4107;DHT22;21906;50.812;7.132;2023-06-19T15:05:00;35.40;29.10
4107;DHT22;21906;50.812;7.132;2023-06-19T15:07:26;35.90;27.50
4107;DHT22;21906;50.812;7.132;2023-06-19T15:09:51;36.30;27.20
4107;DHT22;21906;50.812;7.132;2023-06-19T15:12:17;36.50;27.50
4107;DHT22;21906;50.812;7.132;2023-06-19T15:14:43;37.30;27.30
4107;DHT22;21906;50.812;7.132;2023-06-19T15:17:09;37.90;27.30
4107;DHT22;21906;50.812;7.132;2023-06-19T15:19:35;38.40;24.80
4107;DHT22;21906;50.812;7.132;2023-06-19T15:22:00;39.00;25.40
4107;DHT22;21906;50.812;7.132;2023-06-19T15:24:26;39.50;23.20
4107;DHT22;21906;50.812;7.132;2023-06-19T15:26:52;39.80;23.40
4107;DHT22;21906;50.812;7.132;2023-06-19T15:29:17;40.10;22.70
4107;DHT22;21906;50.812;7.132;2023-06-19T15:31:43;40.10;23.00
4107;DHT22;21906;50.812;7.132;2023-06-19T15:34:09;40.20;23.00
4107;DHT22;21906;50.812;7.132;2023-06-19T15:36:35;40.90;23.10
4107;DHT22;21906;50.812;7.132;2023-06-19T15:39:01;41.60;22.60
4107;DHT22;21906;50.812;7.132;2023-06-19T15:41:27;42.00;21.80
4107;DHT22;21906;50.812;7.132;2023-06-19T15:43:53;42.60;21.10
4107;DHT22;21906;50.812;7.132;2023-06-19T15:46:18;43.20;20.90
4107;DHT22;21906;50.812;7.132;2023-06-19T15:48:44;43.80;19.10
4107;DHT22;21906;50.812;7.132;2023-06-19T15:51:11;44.10;19.40